sensor_id;sensor_type;location;lat;lon;timestamp;pressure;altitude;pressure_sealevel;temperature;humidity
51245;BME280;37840;47.562;18.738;2023-02-23T00:01:14;99714.22;;;8.97;75.19
51245;BME280;37840;47.562;18.738;2023-02-23T00:03:40;99707.00;;;9.00;75.04
51245;BME280;37840;47.562;18.738;2023-02-23T00:06:07;99714.88;;;9.01;74.48
51245;BME280;37840;47.562;18.738;2023-02-23T00:08:34;99713.47;;;8.95;74.86
51245;BME280;37840;47.562;18.738;2023-02-23T00:11:03;99711.66;;;8.96;74.80
51245;BME280;37840;47.562;18.738;2023-02-23T00:13:31;99715.06;;;8.98;74.81
51245;BME280;37840;47.562;18.738;2023-02-23T00:15:57;99711.19;;;8.89;75.50
51245;BME280;37840;47.562;18.738;2023-02-23T00:18:23;99714.59;;;8.91;75.49
51245;BME280;37840;47.562;18.738;2023-02-23T00:20:56;99706.34;;;8.96;75.38
51245;BME280;37840;47.562;18.738;2023-02-23T00:23:23;99708.91;;;8.97;75.14
51245;BME280;37840;47.562;18.738;2023-02-23T00:25:49;99709.00;;;8.96;75.07
51245;BME280;37840;47.562;18.738;2023-02-23T00:28:15;99704.84;;;8.92;75.26
51245;BME280;37840;47.562;18.738;2023-02-23T00:30:41;99709.31;;;8.91;75.13
51245;BME280;37840;47.562;18.738;2023-02-23T00:33:06;99714.59;;;8.91;75.14
51245;BME280;37840;47.562;18.738;2023-02-23T00:35:33;99703.16;;;8.91;75.29
51245;BME280;37840;47.562;18.738;2023-02-23T00:38:01;99711.75;;;8.94;75.07
51245;BME280;37840;47.562;18.738;2023-02-23T00:40:27;99710.87;;;8.94;74.98
51245;BME280;37840;47.562;18.738;2023-02-23T00:42:53;99710.06;;;8.93;74.87
51245;BME280;37840;47.562;18.738;2023-02-23T00:45:19;99716.84;;;8.97;74.68
51245;BME280;37840;47.562;18.738;2023-02-23T00:47:45;99711.84;;;8.93;74.73
51245;BME280;37840;47.562;18.738;2023-02-23T00:50:15;99707.56;;;8.90;75.42
51245;BME280;37840;47.562;18.738;2023-02-23T00:52:43;99710.13;;;8.92;75.48
51245;BME280;37840;47.562;18.738;2023-02-23T00:55:11;99713.09;;;8.87;75.45
51245;BME280;37840;47.562;18.738;2023-02-23T00:57:38;99709.38;;;8.90;75.37
51245;BME280;37840;47.562;18.738;2023-02-23T01:00:07;99712.16;;;8.88;75.19
51245;BME280;37840;47.562;18.738;2023-02-23T01:02:43;99711.28;;;8.88;75.31
51245;BME280;37840;47.562;18.738;2023-02-23T01:05:09;99722.47;;;8.93;74.96
51245;BME280;37840;47.562;18.738;2023-02-23T01:07:37;99721.59;;;8.92;74.82
51245;BME280;37840;47.562;18.738;2023-02-23T01:10:04;99719.25;;;8.88;75.06
51245;BME280;37840;47.562;18.738;2023-02-23T01:12:48;99724.94;;;8.82;75.33
51245;BME280;37840;47.562;18.738;2023-02-23T01:15:16;99721.44;;;8.81;75.44
51245;BME280;37840;47.562;18.738;2023-02-23T01:17:42;99716.88;;;8.83;75.59
51245;BME280;37840;47.562;18.738;2023-02-23T01:20:11;99718.03;;;8.79;75.44
51245;BME280;37840;47.562;18.738;2023-02-23T01:22:44;99710.00;;;8.81;75.46
51245;BME280;37840;47.562;18.738;2023-02-23T01:25:10;99712.44;;;8.84;75.25
51245;BME280;37840;47.562;18.738;2023-02-23T01:27:38;99714.25;;;8.83;75.13
51245;BME280;37840;47.562;18.738;2023-02-23T01:30:06;99712.66;;;8.81;74.88
51245;BME280;37840;47.562;18.738;2023-02-23T01:32:34;99712.66;;;8.81;74.67
51245;BME280;37840;47.562;18.738;2023-02-23T01:35:02;99713.50;;;8.81;74.47
51245;BME280;37840;47.562;18.738;2023-02-23T01:37:30;99713.50;;;8.81;74.44
51245;BME280;37840;47.562;18.738;2023-02-23T01:39:56;99711.03;;;8.78;74.75
51245;BME280;37840;47.562;18.738;2023-02-23T01:42:22;99714.44;;;8.80;74.50
51245;BME280;37840;47.562;18.738;2023-02-23T01:47:15;99712.94;;;8.76;75.42
51245;BME280;37840;47.562;18.738;2023-02-23T01:49:41;99712.94;;;8.76;74.77
51245;BME280;37840;47.562;18.738;2023-02-23T01:52:13;99717.38;;;8.75;75.09
51245;BME280;37840;47.562;18.738;2023-02-23T01:54:50;99713.13;;;8.73;75.82
51245;BME280;37840;47.562;18.738;2023-02-23T01:57:19;99707.19;;;8.69;75.28
51245;BME280;37840;47.562;18.738;2023-02-23T01:59:48;99714.00;;;8.73;75.58
51245;BME280;37840;47.562;18.738;2023-02-23T02:02:20;99720.31;;;8.71;76.22
51245;BME280;37840;47.562;18.738;2023-02-23T02:04:48;99708.41;;;8.64;76.99
51245;BME280;37840;47.562;18.738;2023-02-23T02:07:25;99704.34;;;8.58;77.49
51245;BME280;37840;47.562;18.738;2023-02-23T02:09:57;99704.25;;;8.60;77.36
51245;BME280;37840;47.562;18.738;2023-02-23T02:12:40;99706.69;;;8.63;76.77
51245;BME280;37840;47.562;18.738;2023-02-23T02:15:07;99710.31;;;8.62;76.14
51245;BME280;37840;47.562;18.738;2023-02-23T02:18:18;99710.53;;;8.59;76.69
51245;BME280;37840;47.562;18.738;2023-02-23T02:21:21;99703.59;;;8.56;76.75
51245;BME280;37840;47.562;18.738;2023-02-23T02:26:59;99709.78;;;8.56;75.94
51245;BME280;37840;47.562;18.738;2023-02-23T02:32:36;99702.97;;;8.52;75.72
51245;BME280;37840;47.562;18.738;2023-02-23T02:41:04;99701.25;;;8.51;74.39
51245;BME280;37840;47.562;18.738;2023-02-23T02:46:17;99702.47;;;8.46;74.52
51245;BME280;37840;47.562;18.738;2023-02-23T02:51:51;99706.84;;;8.47;73.38
51245;BME280;37840;47.562;18.738;2023-02-23T02:56:51;99708.72;;;8.45;72.31
51245;BME280;37840;47.562;18.738;2023-02-23T02:59:23;99709.00;;;8.40;72.06
51245;BME280;37840;47.562;18.738;2023-02-23T03:02:20;99713.44;;;8.40;72.15
51245;BME280;37840;47.562;18.738;2023-02-23T03:05:14;99712.50;;;8.41;71.70
51245;BME280;37840;47.562;18.738;2023-02-23T03:08:10;99712.50;;;8.41;71.97
51245;BME280;37840;47.562;18.738;2023-02-23T03:11:08;99721.47;;;8.38;72.17
51245;BME280;37840;47.562;18.738;2023-02-23T03:19:55;99717.69;;;8.28;72.39
51245;BME280;37840;47.562;18.738;2023-02-23T03:22:59;99721.00;;;8.31;72.32
51245;BME280;37840;47.562;18.738;2023-02-23T03:26:11;99721.66;;;8.35;71.81
51245;BME280;37840;47.562;18.738;2023-02-23T03:29:11;99723.75;;;8.30;72.01
51245;BME280;37840;47.562;18.738;2023-02-23T03:38:09;99727.44;;;8.27;72.04
51245;BME280;37840;47.562;18.738;2023-02-23T03:40:57;99724.81;;;8.27;71.20
51245;BME280;37840;47.562;18.738;2023-02-23T03:43:51;99725.72;;;8.26;71.59
51245;BME280;37840;47.562;18.738;2023-02-23T03:46:38;99723.84;;;8.28;71.29
51245;BME280;37840;47.562;18.738;2023-02-23T03:49:26;99726.69;;;8.25;71.33
51245;BME280;37840;47.562;18.738;2023-02-23T03:52:15;99723.28;;;8.23;71.36
51245;BME280;37840;47.562;18.738;2023-02-23T03:55:20;99723.06;;;8.26;71.64
51245;BME280;37840;47.562;18.738;2023-02-23T03:58:12;99727.53;;;8.26;70.78
51245;BME280;37840;47.562;18.738;2023-02-23T04:01:02;99726.69;;;8.25;69.68
51245;BME280;37840;47.562;18.738;2023-02-23T04:03:50;99733.78;;;8.25;67.81
51245;BME280;37840;47.562;18.738;2023-02-23T04:06:39;99739.34;;;8.20;66.64
51245;BME280;37840;47.562;18.738;2023-02-23T04:09:25;99730.84;;;8.15;65.78
51245;BME280;37840;47.562;18.738;2023-02-23T04:12:31;99737.94;;;8.14;65.20
51245;BME280;37840;47.562;18.738;2023-02-23T04:15:38;99730.16;;;8.11;65.11
51245;BME280;37840;47.562;18.738;2023-02-23T04:18:07;99731.97;;;8.11;64.08
51245;BME280;37840;47.562;18.738;2023-02-23T04:20:36;99734.72;;;8.09;63.42
51245;BME280;37840;47.562;18.738;2023-02-23T04:23:02;99731.97;;;8.11;64.30
51245;BME280;37840;47.562;18.738;2023-02-23T04:25:28;99737.66;;;8.05;64.83
51245;BME280;37840;47.562;18.738;2023-02-23T04:27:55;99730.47;;;8.07;63.77
51245;BME280;37840;47.562;18.738;2023-02-23T04:30:21;99734.81;;;8.08;63.20
51245;BME280;37840;47.562;18.738;2023-02-23T04:32:55;99733.19;;;8.05;63.91
51245;BME280;37840;47.562;18.738;2023-02-23T04:35:21;99732.56;;;8.02;64.60
51245;BME280;37840;47.562;18.738;2023-02-23T04:37:47;99734.53;;;7.98;64.57
51245;BME280;37840;47.562;18.738;2023-02-23T04:40:13;99731.97;;;7.96;63.54
51245;BME280;37840;47.562;18.738;2023-02-23T04:42:39;99732.31;;;7.90;64.72
51245;BME280;37840;47.562;18.738;2023-02-23T04:45:06;99735.84;;;7.91;64.83
51245;BME280;37840;47.562;18.738;2023-02-23T04:47:36;99736.69;;;7.91;64.74
51245;BME280;37840;47.562;18.738;2023-02-23T04:50:02;99736.00;;;7.88;65.05
51245;BME280;37840;47.562;18.738;2023-02-23T04:52:28;99742.34;;;7.85;64.19
51245;BME280;37840;47.562;18.738;2023-02-23T04:54:54;99736.00;;;7.88;63.88
51245;BME280;37840;47.562;18.738;2023-02-23T04:57:20;99731.75;;;7.85;63.93
51245;BME280;37840;47.562;18.738;2023-02-23T04:59:46;99741.94;;;7.77;63.71
51245;BME280;37840;47.562;18.738;2023-02-23T05:02:12;99738.47;;;7.76;63.04
51245;BME280;37840;47.562;18.738;2023-02-23T05:04:38;99735.25;;;7.71;64.33
51245;BME280;37840;47.562;18.738;2023-02-23T05:07:04;99735.78;;;7.62;64.78
51245;BME280;37840;47.562;18.738;2023-02-23T05:09:30;99736.72;;;7.61;64.95
51245;BME280;37840;47.562;18.738;2023-02-23T05:11:57;99734.25;;;7.58;65.11
51245;BME280;37840;47.562;18.738;2023-02-23T05:14:23;99735.09;;;7.59;65.44
51245;BME280;37840;47.562;18.738;2023-02-23T05:16:49;99738.97;;;7.53;65.25
51245;BME280;37840;47.562;18.738;2023-02-23T05:19:15;99730.34;;;7.49;65.24
51245;BME280;37840;47.562;18.738;2023-02-23T05:21:41;99746.41;;;7.46;65.46
51245;BME280;37840;47.562;18.738;2023-02-23T05:24:07;99737.78;;;7.43;64.83
51245;BME280;37840;47.562;18.738;2023-02-23T05:26:33;99737.84;;;7.27;65.38
51245;BME280;37840;47.562;18.738;2023-02-23T05:28:59;99740.31;;;7.30;65.81
51245;BME280;37840;47.562;18.738;2023-02-23T05:31:26;99740.50;;;7.27;65.98
51245;BME280;37840;47.562;18.738;2023-02-23T05:33:53;99743.22;;;7.25;65.59
51245;BME280;37840;47.562;18.738;2023-02-23T05:36:20;99745.50;;;7.31;65.56
51245;BME280;37840;47.562;18.738;2023-02-23T05:39:17;99747.28;;;7.31;65.70
51245;BME280;37840;47.562;18.738;2023-02-23T05:41:43;99746.44;;;7.30;65.80
51245;BME280;37840;47.562;18.738;2023-02-23T05:44:09;99751.41;;;7.21;66.42
51245;BME280;37840;47.562;18.738;2023-02-23T05:46:35;99749.69;;;7.20;66.52
51245;BME280;37840;47.562;18.738;2023-02-23T05:49:01;99755.75;;;7.22;66.31
51245;BME280;37840;47.562;18.738;2023-02-23T05:51:29;99748.09;;;7.17;67.04
51245;BME280;37840;47.562;18.738;2023-02-23T05:54:15;99754.28;;;7.16;66.33
51245;BME280;37840;47.562;18.738;2023-02-23T05:56:41;99749.47;;;7.08;67.93
51245;BME280;37840;47.562;18.738;2023-02-23T05:59:08;99756.44;;;7.09;67.06
51245;BME280;37840;47.562;18.738;2023-02-23T06:01:34;99759.44;;;7.03;67.55
51245;BME280;37840;47.562;18.738;2023-02-23T06:04:00;99755.44;;;7.12;67.57
51245;BME280;37840;47.562;18.738;2023-02-23T06:06:26;99763.75;;;7.20;66.57
51245;BME280;37840;47.562;18.738;2023-02-23T06:08:53;99768.91;;;7.23;67.12
51245;BME280;37840;47.562;18.738;2023-02-23T06:11:19;99770.16;;;7.32;66.74
51245;BME280;37840;47.562;18.738;2023-02-23T06:13:45;99779.78;;;7.33;66.19
51245;BME280;37840;47.562;18.738;2023-02-23T06:16:11;99781.50;;;7.34;66.76
51245;BME280;37840;47.562;18.738;2023-02-23T06:18:37;99778.78;;;7.35;66.06
51245;BME280;37840;47.562;18.738;2023-02-23T06:21:03;99787.72;;;7.33;65.86
51245;BME280;37840;47.562;18.738;2023-02-23T06:23:30;99785.97;;;7.33;65.93
51245;BME280;37840;47.562;18.738;2023-02-23T06:25:56;99797.38;;;7.34;65.39
51245;BME280;37840;47.562;18.738;2023-02-23T06:28:25;99792.09;;;7.34;65.11
51245;BME280;37840;47.562;18.738;2023-02-23T06:31:17;99799.84;;;7.37;64.39
51245;BME280;37840;47.562;18.738;2023-02-23T06:33:43;99799.94;;;7.35;65.11
51245;BME280;37840;47.562;18.738;2023-02-23T06:36:09;99806.34;;;7.31;65.85
51245;BME280;37840;47.562;18.738;2023-02-23T06:38:35;99801.97;;;7.30;65.53
51245;BME280;37840;47.562;18.738;2023-02-23T06:41:09;99818.53;;;7.34;66.28
51245;BME280;37840;47.562;18.738;2023-02-23T06:43:36;99812.06;;;7.40;66.23
51245;BME280;37840;47.562;18.738;2023-02-23T06:46:02;99814.53;;;7.43;66.12
51245;BME280;37840;47.562;18.738;2023-02-23T06:48:28;99809.22;;;7.43;65.27
51245;BME280;37840;47.562;18.738;2023-02-23T06:50:58;99821.50;;;7.44;65.56
51245;BME280;37840;47.562;18.738;2023-02-23T06:53:24;99817.94;;;7.45;64.35
51245;BME280;37840;47.562;18.738;2023-02-23T06:55:50;99825.09;;;7.43;65.85
51245;BME280;37840;47.562;18.738;2023-02-23T06:58:16;99817.34;;;7.40;66.31
51245;BME280;37840;47.562;18.738;2023-02-23T07:00:42;99822.47;;;7.43;65.60
51245;BME280;37840;47.562;18.738;2023-02-23T07:03:08;99821.59;;;7.42;65.73
51245;BME280;37840;47.562;18.738;2023-02-23T07:05:36;99825.44;;;7.37;65.50
51245;BME280;37840;47.562;18.738;2023-02-23T07:08:02;99813.84;;;7.39;63.94
51245;BME280;37840;47.562;18.738;2023-02-23T07:10:52;99830.59;;;7.40;63.99
51245;BME280;37840;47.562;18.738;2023-02-23T07:13:18;99829.12;;;7.34;65.10
51245;BME280;37840;47.562;18.738;2023-02-23T07:15:45;99836.47;;;7.29;64.84
51245;BME280;37840;47.562;18.738;2023-02-23T07:18:11;99835.44;;;7.31;64.40
51245;BME280;37840;47.562;18.738;2023-02-23T07:20:36;99842.16;;;7.37;63.62
51245;BME280;37840;47.562;18.738;2023-02-23T07:23:02;99840.28;;;7.39;63.98
51245;BME280;37840;47.562;18.738;2023-02-23T07:28:48;99838.59;;;7.38;63.76
51245;BME280;37840;47.562;18.738;2023-02-23T07:31:14;99846.59;;;7.37;63.72
51245;BME280;37840;47.562;18.738;2023-02-23T07:33:40;99842.84;;;7.41;63.77
51245;BME280;37840;47.562;18.738;2023-02-23T07:36:06;99835.94;;;7.38;63.68
51245;BME280;37840;47.562;18.738;2023-02-23T07:38:33;99843.44;;;7.46;62.64
51245;BME280;37840;47.562;18.738;2023-02-23T07:41:12;99844.03;;;7.51;63.51
51245;BME280;37840;47.562;18.738;2023-02-23T07:43:38;99839.59;;;7.51;63.08
51245;BME280;37840;47.562;18.738;2023-02-23T07:46:04;99845.66;;;7.53;62.48
51245;BME280;37840;47.562;18.738;2023-02-23T07:48:30;99836.19;;;7.49;61.90
51245;BME280;37840;47.562;18.738;2023-02-23T07:50:56;99848.50;;;7.50;61.04
51245;BME280;37840;47.562;18.738;2023-02-23T07:53:22;99842.00;;;7.40;62.39
51245;BME280;37840;47.562;18.738;2023-02-23T07:55:59;99840.63;;;7.33;62.39
51245;BME280;37840;47.562;18.738;2023-02-23T07:58:26;99846.78;;;7.49;62.09
51245;BME280;37840;47.562;18.738;2023-02-23T08:00:53;99840.28;;;7.55;60.58
51245;BME280;37840;47.562;18.738;2023-02-23T08:03:19;99837.19;;;7.63;61.27
51245;BME280;37840;47.562;18.738;2023-02-23T08:05:45;99844.47;;;7.59;61.46
51245;BME280;37840;47.562;18.738;2023-02-23T08:08:10;99843.59;;;7.59;60.89
51245;BME280;37840;47.562;18.738;2023-02-23T08:10:37;99838.81;;;7.65;60.53
51245;BME280;37840;47.562;18.738;2023-02-23T08:13:04;99837.44;;;7.74;59.67
51245;BME280;37840;47.562;18.738;2023-02-23T08:15:31;99838.09;;;7.78;61.08
51245;BME280;37840;47.562;18.738;2023-02-23T08:17:57;99846.31;;;7.73;62.99
51245;BME280;37840;47.562;18.738;2023-02-23T08:20:32;99848.53;;;7.81;61.50
51245;BME280;37840;47.562;18.738;2023-02-23T08:22:58;99849.69;;;7.91;60.12
51245;BME280;37840;47.562;18.738;2023-02-23T08:25:24;99854.38;;;7.86;60.47
51245;BME280;37840;47.562;18.738;2023-02-23T08:27:52;99850.69;;;7.88;58.33
51245;BME280;37840;47.562;18.738;2023-02-23T08:30:20;99853.09;;;7.93;60.51
51245;BME280;37840;47.562;18.738;2023-02-23T08:36:14;99857.16;;;7.99;59.90
51245;BME280;37840;47.562;18.738;2023-02-23T08:38:45;99850.88;;;8.01;59.12
51245;BME280;37840;47.562;18.738;2023-02-23T08:41:12;99855.78;;;8.07;59.36
51245;BME280;37840;47.562;18.738;2023-02-23T08:43:38;99857.31;;;8.11;60.79
51245;BME280;37840;47.562;18.738;2023-02-23T08:46:05;99865.84;;;8.16;58.77
51245;BME280;37840;47.562;18.738;2023-02-23T08:55:24;99860.91;;;8.10;57.56
51245;BME280;37840;47.562;18.738;2023-02-23T15:41:02;99691.69;;;9.70;57.04
51245;BME280;37840;47.562;18.738;2023-02-23T15:43:31;99691.69;;;9.70;56.56
51245;BME280;37840;47.562;18.738;2023-02-23T15:46:00;99687.09;;;9.59;56.83
51245;BME280;37840;47.562;18.738;2023-02-23T15:49:09;99687.75;;;9.63;57.39
51245;BME280;37840;47.562;18.738;2023-02-23T15:51:42;99686.47;;;9.69;57.04
51245;BME280;37840;47.562;18.738;2023-02-23T15:54:21;99684.03;;;9.66;56.93
51245;BME280;37840;47.562;18.738;2023-02-23T15:56:50;99687.63;;;9.65;58.01
51245;BME280;37840;47.562;18.738;2023-02-23T15:59:39;99688.50;;;9.65;57.14
51245;BME280;37840;47.562;18.738;2023-02-23T16:02:17;99690.50;;;9.62;57.82
51245;BME280;37840;47.562;18.738;2023-02-23T16:04:46;99691.25;;;9.64;57.34
51245;BME280;37840;47.562;18.738;2023-02-23T16:07:20;99690.28;;;9.65;58.02
51245;BME280;37840;47.562;18.738;2023-02-23T16:09:55;99690.28;;;9.65;58.38
51245;BME280;37840;47.562;18.738;2023-02-23T16:12:32;99683.81;;;9.69;58.05
51245;BME280;37840;47.562;18.738;2023-02-23T16:15:03;99687.34;;;9.69;58.10
51245;BME280;37840;47.562;18.738;2023-02-23T16:17:41;99689.13;;;9.69;58.46
51245;BME280;37840;47.562;18.738;2023-02-23T16:22:54;99678.50;;;9.69;57.78
51245;BME280;37840;47.562;18.738;2023-02-23T16:25:25;99684.78;;;9.68;58.08
51245;BME280;37840;47.562;18.738;2023-02-23T16:33:21;99678.72;;;9.66;59.05
51245;BME280;37840;47.562;18.738;2023-02-23T16:35:51;99671.91;;;9.62;59.31
51245;BME280;37840;47.562;18.738;2023-02-23T16:38:26;99678.38;;;9.57;59.22
51245;BME280;37840;47.562;18.738;2023-02-23T16:40:52;99673.28;;;9.54;59.28
51245;BME280;37840;47.562;18.738;2023-02-23T16:43:19;99675.06;;;9.54;59.49
51245;BME280;37840;47.562;18.738;2023-02-23T16:45:45;99674.34;;;9.52;59.51
51245;BME280;37840;47.562;18.738;2023-02-23T16:48:16;99679.78;;;9.50;59.45
51245;BME280;37840;47.562;18.738;2023-02-23T16:50:43;99680.69;;;9.49;59.62
51245;BME280;37840;47.562;18.738;2023-02-23T16:53:11;99690.47;;;9.49;59.40
51245;BME280;37840;47.562;18.738;2023-02-23T16:55:46;99684.31;;;9.48;60.05
51245;BME280;37840;47.562;18.738;2023-02-23T16:58:17;99680.94;;;9.46;60.23
51245;BME280;37840;47.562;18.738;2023-02-23T17:00:44;99679.97;;;9.47;60.01
51245;BME280;37840;47.562;18.738;2023-02-23T17:03:19;99679.97;;;9.47;59.67
51245;BME280;37840;47.562;18.738;2023-02-23T17:05:46;99681.53;;;9.50;58.89
51245;BME280;37840;47.562;18.738;2023-02-23T17:08:13;99686.84;;;9.50;59.40
51245;BME280;37840;47.562;18.738;2023-02-23T17:10:39;99689.50;;;9.50;59.49
51245;BME280;37840;47.562;18.738;2023-02-23T17:13:14;99686.84;;;9.50;59.46
51245;BME280;37840;47.562;18.738;2023-02-23T17:15:42;99688.75;;;9.48;59.94
51245;BME280;37840;47.562;18.738;2023-02-23T17:18:20;99686.09;;;9.48;59.75
51245;BME280;37840;47.562;18.738;2023-02-23T17:20:49;99686.97;;;9.48;59.83
51245;BME280;37840;47.562;18.738;2023-02-23T17:23:16;99686.97;;;9.48;59.45
51245;BME280;37840;47.562;18.738;2023-02-23T17:25:42;99681.78;;;9.47;59.59
51245;BME280;37840;47.562;18.738;2023-02-23T17:28:08;99681.69;;;9.48;59.68
51245;BME280;37840;47.562;18.738;2023-02-23T17:30:35;99685.06;;;9.50;59.53
51245;BME280;37840;47.562;18.738;2023-02-23T17:33:02;99681.44;;;9.51;59.01
51245;BME280;37840;47.562;18.738;2023-02-23T17:35:29;99683.16;;;9.52;58.81
51245;BME280;37840;47.562;18.738;2023-02-23T17:38:04;99685.69;;;9.54;58.70
51245;BME280;37840;47.562;18.738;2023-02-23T17:40:31;99679.34;;;9.56;58.54
51245;BME280;37840;47.562;18.738;2023-02-23T17:43:00;99678.69;;;9.53;58.90
51245;BME280;37840;47.562;18.738;2023-02-23T17:45:28;99682.53;;;9.49;58.91
51245;BME280;37840;47.562;18.738;2023-02-23T17:47:54;99682.75;;;9.46;58.98
51245;BME280;37840;47.562;18.738;2023-02-23T17:50:21;99686.44;;;9.43;59.28
51245;BME280;37840;47.562;18.738;2023-02-23T17:52:48;99683.16;;;9.39;59.56
51245;BME280;37840;47.562;18.738;2023-02-23T17:55:14;99683.16;;;9.39;59.54
51245;BME280;37840;47.562;18.738;2023-02-23T17:57:40;99679.44;;;9.42;59.22
51245;BME280;37840;47.562;18.738;2023-02-23T18:00:07;99680.37;;;9.41;59.27
51245;BME280;37840;47.562;18.738;2023-02-23T18:02:38;99669.88;;;9.39;59.29
51245;BME280;37840;47.562;18.738;2023-02-23T18:05:05;99673.47;;;9.38;59.34
51245;BME280;37840;47.562;18.738;2023-02-23T18:07:32;99670.91;;;9.37;59.53
51245;BME280;37840;47.562;18.738;2023-02-23T18:09:58;99668.25;;;9.37;59.69
51245;BME280;37840;47.562;18.738;2023-02-23T18:12:24;99666.66;;;9.34;59.98
51245;BME280;37840;47.562;18.738;2023-02-23T18:14:50;99669.31;;;9.34;59.23
51245;BME280;37840;47.562;18.738;2023-02-23T18:17:16;99656.69;;;9.38;58.79
51245;BME280;37840;47.562;18.738;2023-02-23T18:19:42;99661.25;;;9.36;59.14
51245;BME280;37840;47.562;18.738;2023-02-23T18:22:09;99659.66;;;9.33;59.37
51245;BME280;37840;47.562;18.738;2023-02-23T18:24:36;99658.19;;;9.29;59.29
51245;BME280;37840;47.562;18.738;2023-02-23T18:27:02;99658.69;;;9.22;60.19
51245;BME280;37840;47.562;18.738;2023-02-23T18:29:29;99662.81;;;9.26;60.47
51245;BME280;37840;47.562;18.738;2023-02-23T18:31:57;99656.59;;;9.27;60.02
51245;BME280;37840;47.562;18.738;2023-02-23T18:34:25;99655.53;;;9.29;59.60
51245;BME280;37840;47.562;18.738;2023-02-23T18:36:53;99649.38;;;9.29;59.37
51245;BME280;37840;47.562;18.738;2023-02-23T18:39:19;99654.56;;;9.30;59.25
51245;BME280;37840;47.562;18.738;2023-02-23T18:41:46;99650.31;;;9.28;59.53
51245;BME280;37840;47.562;18.738;2023-02-23T18:44:14;99645.09;;;9.26;59.77
51245;BME280;37840;47.562;18.738;2023-02-23T18:46:41;99646.50;;;9.32;58.82
51245;BME280;37840;47.562;18.738;2023-02-23T18:49:12;99651.72;;;9.33;58.68
51245;BME280;37840;47.562;18.738;2023-02-23T18:51:38;99651.72;;;9.33;58.71
51245;BME280;37840;47.562;18.738;2023-02-23T18:54:04;99644.69;;;9.32;59.01
51245;BME280;37840;47.562;18.738;2023-02-23T18:56:35;99647.56;;;9.29;59.38
51245;BME280;37840;47.562;18.738;2023-02-23T18:59:01;99639.59;;;9.29;59.77
51245;BME280;37840;47.562;18.738;2023-02-23T19:01:29;99639.50;;;9.31;59.87
51245;BME280;37840;47.562;18.738;2023-02-23T19:03:58;99637.69;;;9.31;59.85
51245;BME280;37840;47.562;18.738;2023-02-23T19:06:24;99647.47;;;9.31;59.99
51245;BME280;37840;47.562;18.738;2023-02-23T19:08:56;99633.13;;;9.33;58.96
51245;BME280;37840;47.562;18.738;2023-02-23T19:11:26;99631.53;;;9.31;59.03
51245;BME280;37840;47.562;18.738;2023-02-23T19:13:54;99641.28;;;9.30;59.13
51245;BME280;37840;47.562;18.738;2023-02-23T19:16:21;99629.50;;;9.34;58.97
51245;BME280;37840;47.562;18.738;2023-02-23T19:18:48;99631.31;;;9.34;58.83
51245;BME280;37840;47.562;18.738;2023-02-23T19:21:15;99636.53;;;9.35;59.14
51245;BME280;37840;47.562;18.738;2023-02-23T19:23:42;99627.84;;;9.33;59.37
51245;BME280;37840;47.562;18.738;2023-02-23T19:26:10;99632.28;;;9.33;58.80
51245;BME280;37840;47.562;18.738;2023-02-23T19:28:37;99634.94;;;9.33;58.95
51245;BME280;37840;47.562;18.738;2023-02-23T19:31:05;99639.19;;;9.35;58.83
51245;BME280;37840;47.562;18.738;2023-02-23T19:33:31;99636.41;;;9.37;59.42
51245;BME280;37840;47.562;18.738;2023-02-23T19:35:57;99634.63;;;9.37;59.02
51245;BME280;37840;47.562;18.738;2023-02-23T19:38:27;99637.47;;;9.34;59.43
51245;BME280;37840;47.562;18.738;2023-02-23T19:40:54;99644.50;;;9.35;59.64
51245;BME280;37840;47.562;18.738;2023-02-23T19:43:20;99642.59;;;9.37;59.67
51245;BME280;37840;47.562;18.738;2023-02-23T19:45:46;99643.22;;;9.41;58.89
51245;BME280;37840;47.562;18.738;2023-02-23T19:48:13;99645.03;;;9.41;58.50
51245;BME280;37840;47.562;18.738;2023-02-23T19:50:47;99644.38;;;9.37;59.05
51245;BME280;37840;47.562;18.738;2023-02-23T19:53:14;99641.53;;;9.40;59.35
51245;BME280;37840;47.562;18.738;2023-02-23T19:55:41;99638.13;;;9.38;59.60
51245;BME280;37840;47.562;18.738;2023-02-23T20:00:12;99634.31;;;9.42;60.50
51245;BME280;37840;47.562;18.738;2023-02-23T20:02:39;99632.81;;;9.38;60.36
51245;BME280;37840;47.562;18.738;2023-02-23T20:05:14;99634.63;;;9.37;59.87
51245;BME280;37840;47.562;18.738;2023-02-23T20:07:41;99631.75;;;9.41;59.74
51245;BME280;37840;47.562;18.738;2023-02-23T20:10:09;99629.09;;;9.41;59.33
51245;BME280;37840;47.562;18.738;2023-02-23T20:12:38;99622.84;;;9.42;59.29
51245;BME280;37840;47.562;18.738;2023-02-23T20:15:04;99615.72;;;9.42;59.31
51245;BME280;37840;47.562;18.738;2023-02-23T20:17:30;99622.84;;;9.42;59.43
51245;BME280;37840;47.562;18.738;2023-02-23T20:19:56;99621.13;;;9.41;60.12
51245;BME280;37840;47.562;18.738;2023-02-23T20:22:22;99617.75;;;9.38;60.11
51245;BME280;37840;47.562;18.738;2023-02-23T20:24:48;99616.81;;;9.39;59.83
51245;BME280;37840;47.562;18.738;2023-02-23T20:27:14;99613.19;;;9.41;60.22
51245;BME280;37840;47.562;18.738;2023-02-23T20:29:40;99611.69;;;9.36;60.70
51245;BME280;37840;47.562;18.738;2023-02-23T20:32:06;99613.59;;;9.34;61.00
51245;BME280;37840;47.562;18.738;2023-02-23T20:34:32;99606.69;;;9.32;60.68
51245;BME280;37840;47.562;18.738;2023-02-23T20:37:00;99606.69;;;9.32;60.46
51245;BME280;37840;47.562;18.738;2023-02-23T20:39:28;99605.84;;;9.31;60.94
51245;BME280;37840;47.562;18.738;2023-02-23T20:41:54;99608.50;;;9.31;61.05
51245;BME280;37840;47.562;18.738;2023-02-23T20:44:22;99609.84;;;9.24;61.07
51245;BME280;37840;47.562;18.738;2023-02-23T20:46:48;99608.38;;;9.20;61.35
51245;BME280;37840;47.562;18.738;2023-02-23T20:49:14;99611.87;;;9.21;61.16
51245;BME280;37840;47.562;18.738;2023-02-23T20:51:45;99611.75;;;9.22;60.91
51245;BME280;37840;47.562;18.738;2023-02-23T20:54:13;99614.31;;;9.24;60.80
51245;BME280;37840;47.562;18.738;2023-02-23T20:56:40;99613.37;;;9.25;60.79
51245;BME280;37840;47.562;18.738;2023-02-23T20:59:07;99610.50;;;9.28;60.46